createdAt,value
2023-01-13T00:01:54.116Z,0.97
2023-01-13T00:04:24.018Z,1.11
2023-01-13T00:06:53.976Z,1.17
2023-01-13T00:09:26.527Z,1.20
2023-01-13T00:11:56.479Z,1.01
2023-01-13T00:14:29.747Z,1.12
2023-01-13T00:16:59.666Z,1.07
2023-01-13T00:19:29.529Z,1.36
2023-01-13T00:21:59.450Z,1.35
2023-01-13T00:24:32.024Z,1.23
2023-01-13T00:27:01.895Z,1.07
2023-01-13T00:29:32.166Z,0.81
2023-01-13T00:32:01.963Z,1.24
2023-01-13T00:34:31.880Z,1.11
2023-01-13T00:37:01.721Z,1.05
2023-01-13T00:39:34.194Z,1.17
2023-01-13T00:42:16.461Z,0.97
2023-01-13T00:44:46.238Z,1.08
2023-01-13T00:47:16.080Z,1.16
2023-01-13T00:49:45.889Z,1.13
2023-01-13T00:52:15.851Z,1.07
2023-01-13T00:54:48.267Z,1.06
2023-01-13T00:57:18.849Z,1.04
2023-01-13T00:59:49.642Z,1.01
2023-01-13T01:02:19.621Z,1.00
2023-01-13T01:04:49.434Z,0.95
2023-01-13T01:07:19.353Z,1.12
2023-01-13T01:09:52.586Z,0.98
2023-01-13T01:12:22.452Z,1.05
2023-01-13T01:14:52.285Z,1.07
2023-01-13T01:17:22.247Z,1.08
2023-01-13T01:19:52.113Z,1.06
2023-01-13T01:22:21.919Z,0.90
2023-01-13T01:24:54.346Z,1.12
2023-01-13T01:27:24.598Z,1.15
2023-01-13T01:29:54.406Z,1.14
2023-01-13T01:32:24.410Z,0.91
2023-01-13T01:34:54.831Z,1.05
2023-01-13T01:37:24.654Z,1.11
2023-01-13T01:39:57.084Z,1.09
2023-01-13T01:42:39.338Z,0.96
2023-01-13T01:45:18.220Z,1.05
2023-01-13T01:47:52.870Z,0.98
2023-01-13T01:50:23.364Z,0.90
2023-01-13T01:52:59.424Z,0.97
2023-01-13T01:55:37.438Z,1.00
2023-01-13T01:58:13.992Z,0.90
2023-01-13T02:00:43.842Z,0.96
2023-01-13T02:03:14.406Z,1.18
2023-01-13T02:05:44.524Z,1.16
2023-01-13T02:08:16.779Z,1.03
2023-01-13T02:10:56.391Z,1.03
2023-01-13T02:13:23.935Z,1.05
2023-01-13T02:16:01.604Z,1.06
2023-01-13T02:18:49.649Z,1.04
2023-01-13T02:21:51.859Z,1.04
2023-01-13T02:24:56.388Z,1.13
2023-01-13T02:27:46.636Z,1.11
2023-01-13T02:30:46.121Z,1.02
2023-01-13T02:33:51.149Z,1.09
2023-01-13T02:36:34.421Z,1.39
2023-01-13T02:39:12.804Z,1.17
2023-01-13T02:42:05.299Z,1.07
2023-01-13T02:44:44.092Z,1.06
2023-01-13T02:47:21.783Z,1.03
2023-01-13T02:49:56.591Z,0.97
2023-01-13T02:52:33.100Z,0.96
2023-01-13T02:55:09.374Z,0.96
2023-01-13T02:57:42.487Z,0.94
2023-01-13T03:00:16.553Z,1.19
2023-01-13T03:02:50.851Z,1.16
2023-01-13T03:05:21.243Z,1.09
2023-01-13T03:08:04.212Z,1.25
2023-01-13T03:10:52.061Z,1.18
2023-01-13T03:13:41.265Z,0.94
2023-01-13T03:16:23.780Z,1.06
2023-01-13T03:19:09.939Z,1.15
2023-01-13T03:21:51.021Z,1.31
2023-01-13T03:24:28.638Z,1.04
2023-01-13T03:27:07.100Z,1.18
2023-01-13T03:29:41.692Z,1.00
2023-01-13T03:32:19.044Z,1.12
2023-01-13T03:34:56.105Z,1.12
2023-01-13T03:37:33.408Z,0.95
2023-01-13T03:40:10.414Z,1.20
2023-01-13T03:43:04.479Z,0.98
2023-01-13T03:45:36.045Z,0.89
2023-01-13T03:48:13.824Z,0.97
2023-01-13T03:50:52.556Z,1.15
2023-01-13T03:53:28.917Z,1.13
2023-01-13T03:56:04.965Z,0.93
2023-01-13T03:58:41.411Z,1.04
2023-01-13T04:01:18.568Z,0.99
2023-01-13T04:03:56.945Z,1.01
2023-01-13T04:06:41.662Z,0.95
2023-01-13T04:09:21.478Z,0.80
2023-01-13T04:11:58.557Z,0.93
2023-01-13T04:14:31.315Z,0.80
2023-01-13T04:17:01.454Z,0.89
2023-01-13T04:19:31.808Z,0.89
2023-01-13T04:22:04.226Z,0.85
2023-01-13T04:24:34.051Z,0.86
2023-01-13T04:27:03.918Z,0.89
2023-01-13T04:29:33.706Z,0.85
2023-01-13T04:32:03.586Z,0.76
2023-01-13T04:34:33.542Z,0.86
2023-01-13T04:37:06.055Z,0.77
2023-01-13T04:39:35.936Z,0.69
2023-01-13T04:42:05.822Z,0.82
2023-01-13T04:44:36.179Z,0.68
2023-01-13T04:47:07.979Z,0.72
2023-01-13T04:49:37.824Z,0.75
2023-01-13T04:52:10.367Z,0.61
2023-01-13T04:54:40.173Z,0.67
2023-01-13T04:57:10.065Z,0.68
2023-01-13T04:59:42.115Z,0.69
2023-01-13T05:02:19.595Z,0.65
2023-01-13T05:04:49.951Z,0.75
2023-01-13T05:07:22.451Z,0.74
2023-01-13T05:09:52.243Z,0.57
2023-01-13T05:12:34.636Z,0.75
2023-01-13T05:15:16.988Z,0.59
2023-01-13T05:17:47.287Z,0.60
2023-01-13T05:20:18.226Z,0.60
2023-01-13T05:23:03.137Z,0.55
2023-01-13T05:25:33.027Z,0.60
2023-01-13T05:28:03.278Z,0.67
2023-01-13T05:30:36.334Z,0.64
2023-01-13T05:33:06.477Z,0.53
2023-01-13T05:35:36.333Z,0.59
2023-01-13T05:38:08.809Z,0.44
2023-01-13T05:40:54.023Z,0.51
2023-01-13T05:43:24.989Z,0.54
2023-01-13T05:45:59.565Z,0.45
2023-01-13T05:48:33.146Z,0.63
2023-01-13T05:51:03.319Z,0.59
2023-01-13T05:53:36.610Z,0.68
2023-01-13T05:56:07.973Z,0.58
2023-01-13T05:58:38.294Z,0.62
2023-01-13T06:01:10.185Z,0.65
2023-01-13T06:03:40.565Z,0.64
2023-01-13T06:06:10.822Z,0.60
2023-01-13T06:08:43.302Z,0.77
2023-01-13T06:11:13.268Z,0.66
2023-01-13T06:13:43.122Z,0.61
2023-01-13T06:16:13.433Z,0.66
2023-01-13T06:18:43.357Z,0.80
2023-01-13T06:21:13.189Z,0.68
2023-01-13T06:23:45.683Z,0.70
2023-01-13T06:26:21.752Z,0.65
2023-01-13T06:28:51.818Z,0.60
2023-01-13T06:31:23.309Z,0.68
2023-01-13T06:33:59.699Z,0.74
2023-01-13T06:36:35.740Z,0.69
2023-01-13T06:39:09.178Z,0.63
2023-01-13T06:41:51.657Z,0.59
2023-01-13T06:44:23.834Z,0.50
2023-01-13T06:46:54.297Z,0.54
2023-01-13T06:49:24.187Z,0.62
2023-01-13T06:51:54.153Z,0.50
2023-01-13T06:54:27.853Z,0.53
2023-01-13T06:56:57.884Z,0.61
2023-01-13T06:59:28.064Z,0.45
2023-01-13T07:01:58.090Z,0.56
2023-01-13T07:04:28.436Z,0.53
2023-01-13T07:06:58.644Z,0.52
2023-01-13T07:09:31.199Z,0.60
2023-01-13T07:12:01.031Z,0.73
2023-01-13T07:14:43.313Z,0.52
2023-01-13T07:17:13.372Z,0.55
2023-01-13T07:19:43.287Z,0.46
2023-01-13T07:22:16.372Z,0.51
2023-01-13T07:24:48.854Z,0.59
2023-01-13T07:27:18.723Z,0.54
2023-01-13T07:29:50.070Z,0.65
2023-01-13T07:32:19.984Z,0.83
2023-01-13T07:34:49.825Z,0.45
2023-01-13T07:37:19.750Z,0.50
2023-01-13T07:39:52.165Z,0.68
2023-01-13T07:42:34.438Z,0.74
2023-01-13T07:45:04.325Z,0.77
2023-01-13T07:47:34.704Z,0.82
2023-01-13T07:50:04.763Z,0.71
2023-01-13T07:52:34.647Z,0.72
2023-01-13T07:55:07.654Z,0.64
2023-01-13T07:57:37.599Z,0.73
2023-01-13T08:00:10.490Z,0.80
2023-01-13T08:02:42.071Z,1.02
2023-01-13T08:05:13.352Z,0.96
2023-01-13T08:07:43.249Z,0.99
2023-01-13T08:10:16.112Z,0.94
2023-01-13T08:13:01.282Z,0.81
2023-01-13T08:15:31.620Z,0.76
2023-01-13T08:18:01.870Z,0.89
2023-01-13T08:20:31.757Z,0.97
2023-01-13T08:23:02.818Z,1.23
2023-01-13T08:25:35.723Z,1.43
2023-01-13T08:28:06.195Z,1.38
2023-01-13T08:30:36.155Z,1.14
2023-01-13T08:33:10.079Z,1.30
2023-01-13T08:35:40.632Z,1.35
2023-01-13T08:38:11.749Z,0.86
2023-01-13T08:40:44.806Z,0.98
2023-01-13T08:43:14.859Z,1.03
2023-01-13T08:45:45.095Z,1.06
2023-01-13T08:48:14.963Z,0.99
2023-01-13T08:50:44.796Z,0.84
2023-01-13T08:53:14.673Z,1.09
2023-01-13T08:55:47.141Z,1.36
2023-01-13T08:58:17.025Z,2.01
2023-01-13T09:00:47.234Z,0.98
2023-01-13T09:03:17.304Z,1.25
2023-01-13T09:05:47.153Z,1.24
2023-01-13T09:08:17.012Z,1.51
2023-01-13T09:10:49.558Z,1.50
2023-01-13T09:13:17.201Z,1.49
2023-01-13T09:15:49.056Z,3.80
2023-01-13T09:18:19.004Z,1.85
2023-01-13T09:20:48.891Z,2.04
2023-01-13T09:23:18.849Z,1.73
2023-01-13T09:25:51.999Z,1.08
2023-01-13T09:28:22.070Z,1.44
2023-01-13T09:30:52.046Z,1.21
2023-01-13T09:33:49.606Z,1.25
2023-01-13T09:36:19.635Z,1.47
2023-01-13T09:38:51.663Z,1.36
2023-01-13T09:41:41.259Z,1.24
2023-01-13T09:44:21.891Z,1.74
2023-01-13T09:46:59.221Z,1.47
2023-01-13T09:49:37.577Z,1.36
2023-01-13T09:52:19.404Z,1.40
2023-01-13T09:54:56.459Z,2.13
2023-01-13T09:57:35.257Z,2.77
2023-01-13T10:00:09.865Z,1.79
2023-01-13T10:03:16.438Z,1.79
2023-01-13T10:05:56.485Z,2.24
2023-01-13T10:08:30.949Z,2.33
2023-01-13T10:11:23.683Z,2.05
2023-01-13T10:14:00.372Z,1.83
2023-01-13T10:16:42.296Z,1.80
2023-01-13T10:19:22.691Z,1.43
2023-01-13T10:22:31.160Z,1.35
2023-01-13T10:25:21.865Z,1.77
2023-01-13T10:27:55.419Z,1.65
2023-01-13T10:30:40.137Z,1.44
2023-01-13T10:33:17.587Z,1.51
2023-01-13T10:35:58.143Z,1.71
2023-01-13T10:38:31.847Z,1.80
2023-01-13T10:41:03.922Z,1.65
2023-01-13T10:43:34.665Z,1.91
2023-01-13T10:46:10.253Z,1.84
2023-01-13T10:48:44.016Z,2.01
2023-01-13T10:51:29.917Z,2.09
2023-01-13T10:54:03.361Z,1.85
2023-01-13T10:56:35.970Z,2.05
2023-01-13T10:59:17.614Z,2.89
2023-01-13T11:02:04.072Z,1.87
2023-01-13T11:04:43.631Z,1.92
2023-01-13T11:07:28.409Z,1.85
2023-01-13T11:10:19.414Z,2.11
2023-01-13T11:13:00.285Z,2.17
2023-01-13T11:15:42.713Z,2.21
2023-01-13T11:18:26.189Z,2.59
2023-01-13T11:21:01.035Z,2.30
2023-01-13T11:23:39.523Z,2.61
2023-01-13T11:26:19.109Z,2.62
2023-01-13T11:28:59.858Z,2.74
2023-01-13T11:31:38.800Z,2.94
2023-01-13T11:34:28.283Z,2.40
2023-01-13T11:37:03.217Z,2.38
2023-01-13T11:39:50.524Z,2.21
2023-01-13T11:42:28.919Z,2.57
2023-01-13T11:45:10.655Z,3.00
2023-01-13T11:47:41.995Z,2.25
2023-01-13T11:50:24.355Z,2.23
2023-01-13T11:53:23.833Z,2.18
2023-01-13T11:56:08.260Z,2.03
2023-01-13T11:59:07.480Z,2.70
2023-01-13T12:01:52.629Z,3.90
2023-01-13T12:04:32.086Z,4.16
2023-01-13T12:07:22.886Z,3.75
2023-01-13T12:10:11.610Z,2.76
2023-01-13T12:12:56.365Z,2.06
2023-01-13T12:15:58.928Z,2.27
2023-01-13T12:19:07.773Z,1.95
2023-01-13T12:21:45.325Z,2.10
2023-01-13T12:24:27.617Z,2.25
2023-01-13T12:27:02.467Z,2.46
2023-01-13T12:29:36.851Z,3.26
2023-01-13T12:32:10.357Z,3.10
2023-01-13T12:34:55.201Z,2.69
2023-01-13T12:37:36.246Z,2.89
2023-01-13T12:40:28.318Z,2.28
2023-01-13T12:43:23.679Z,2.92
2023-01-13T12:45:53.732Z,2.61
2023-01-13T12:48:49.313Z,2.13
2023-01-13T12:51:27.976Z,2.12
2023-01-13T12:53:59.076Z,2.09
2023-01-13T12:56:47.259Z,2.51
2023-01-13T12:59:38.594Z,2.29
2023-01-13T13:02:30.803Z,1.84
2023-01-13T13:05:24.485Z,1.67
2023-01-13T13:08:07.226Z,2.02
2023-01-13T13:10:42.957Z,2.01
2023-01-13T13:13:42.108Z,1.73
2023-01-13T13:16:41.994Z,1.98
2023-01-13T13:19:41.962Z,1.96
2023-01-13T13:22:47.322Z,2.82
2023-01-13T13:25:27.239Z,2.70
2023-01-13T13:28:17.797Z,2.40
2023-01-13T13:31:10.313Z,2.14
2023-01-13T13:33:52.424Z,2.13
2023-01-13T13:36:49.428Z,2.96
2023-01-13T13:39:39.949Z,2.86
2023-01-13T13:42:29.041Z,2.86
2023-01-13T13:45:15.245Z,3.54
2023-01-13T13:47:48.112Z,2.97
2023-01-13T13:50:20.544Z,2.66
2023-01-13T13:52:58.572Z,2.64
2023-01-13T13:55:31.302Z,2.35
2023-01-13T13:58:02.721Z,2.58
2023-01-13T14:00:36.919Z,2.57
2023-01-13T14:03:24.867Z,2.34
2023-01-13T14:05:59.969Z,2.27
2023-01-13T14:08:32.822Z,2.19
2023-01-13T14:11:03.425Z,2.60
2023-01-13T14:13:34.506Z,2.32
2023-01-13T14:16:07.207Z,2.37
2023-01-13T14:18:48.720Z,2.49
2023-01-13T14:21:23.736Z,2.67
2023-01-13T14:23:56.825Z,2.44
2023-01-13T14:26:29.394Z,2.48
2023-01-13T14:29:01.613Z,3.10
2023-01-13T14:31:33.239Z,2.95
2023-01-13T14:34:31.707Z,2.41
2023-01-13T14:36:58.522Z,2.27
2023-01-13T14:39:38.864Z,2.24
2023-01-13T14:42:16.136Z,2.51
2023-01-13T14:44:49.235Z,2.48
2023-01-13T14:47:27.479Z,2.47
2023-01-13T14:50:05.707Z,2.42
2023-01-13T14:52:39.373Z,2.45
2023-01-13T14:55:26.624Z,2.14
2023-01-13T14:58:17.341Z,2.25
2023-01-13T15:00:47.612Z,2.43
2023-01-13T15:03:19.649Z,2.37
2023-01-13T15:05:54.126Z,2.52
2023-01-13T15:08:40.057Z,2.52
2023-01-13T15:11:25.209Z,2.47
2023-01-13T15:14:02.105Z,2.85
2023-01-13T15:16:34.942Z,2.59
2023-01-13T15:19:05.359Z,3.98
2023-01-13T15:21:37.869Z,2.62
2023-01-13T15:24:08.820Z,2.44
2023-01-13T15:26:38.887Z,2.40
2023-01-13T15:29:17.436Z,2.43
2023-01-13T15:31:47.293Z,2.68
2023-01-13T15:34:17.306Z,2.92
2023-01-13T15:36:49.825Z,2.99
2023-01-13T15:39:19.702Z,1.73
2023-01-13T15:42:02.091Z,1.84
2023-01-13T15:44:44.456Z,2.02
2023-01-13T15:47:14.797Z,1.98
2023-01-13T15:49:47.660Z,2.08
2023-01-13T15:52:24.131Z,2.01
2023-01-13T15:54:55.509Z,2.02
2023-01-13T15:57:28.610Z,2.21
2023-01-13T16:00:01.074Z,2.32
2023-01-13T16:02:31.258Z,2.18
2023-01-13T16:05:01.227Z,2.46
2023-01-13T16:07:33.883Z,2.59
2023-01-13T16:10:05.135Z,2.69
2023-01-13T16:12:35.491Z,2.52
2023-01-13T16:15:05.485Z,2.71
2023-01-13T16:17:37.901Z,2.81
2023-01-13T16:20:09.255Z,3.06
2023-01-13T16:22:41.716Z,3.03
2023-01-13T16:25:19.293Z,3.02
2023-01-13T16:27:49.515Z,2.85
2023-01-13T16:30:26.580Z,2.93
2023-01-13T16:32:57.072Z,2.73
2023-01-13T16:35:28.768Z,2.87
2023-01-13T16:38:01.542Z,3.21
2023-01-13T16:40:34.138Z,2.91
2023-01-13T16:43:06.910Z,2.77
2023-01-13T16:45:37.351Z,2.80
2023-01-13T16:48:07.950Z,3.08
2023-01-13T16:50:41.433Z,3.04
2023-01-13T16:53:14.855Z,2.77
2023-01-13T16:55:46.180Z,2.76
2023-01-13T16:58:20.442Z,2.59
2023-01-13T17:00:52.958Z,3.08
2023-01-13T17:03:22.975Z,2.95
2023-01-13T17:05:52.880Z,3.69
2023-01-13T17:08:25.827Z,5.28
2023-01-13T17:10:55.685Z,4.02
2023-01-13T17:13:25.512Z,3.51
2023-01-13T17:15:55.447Z,3.72
2023-01-13T17:18:25.296Z,4.72
2023-01-13T17:20:55.230Z,4.84
2023-01-13T17:23:28.941Z,4.10
2023-01-13T17:25:58.764Z,4.32
2023-01-13T17:28:28.647Z,4.48
2023-01-13T17:30:58.579Z,5.89
2023-01-13T17:33:29.643Z,6.03
2023-01-13T17:35:59.508Z,7.09
2023-01-13T17:38:32.036Z,7.71
2023-01-13T17:41:05.938Z,9.36
2023-01-13T17:43:35.968Z,4.56
2023-01-13T17:46:10.293Z,4.82
2023-01-13T17:48:40.321Z,4.56
2023-01-13T17:51:13.909Z,3.80
2023-01-13T17:53:47.134Z,3.46
2023-01-13T17:56:18.791Z,2.83
2023-01-13T17:58:48.732Z,2.26
2023-01-13T18:01:21.533Z,2.77
2023-01-13T18:03:52.005Z,2.56
2023-01-13T18:06:24.354Z,2.47
2023-01-13T18:08:57.434Z,2.33
2023-01-13T18:11:28.232Z,2.72
2023-01-13T18:14:00.307Z,2.89
2023-01-13T18:16:32.695Z,3.08
2023-01-13T18:19:15.484Z,3.22
2023-01-13T18:21:58.040Z,2.67
2023-01-13T18:24:43.121Z,3.20
2023-01-13T18:27:26.588Z,3.22
2023-01-13T18:29:58.912Z,3.53
2023-01-13T18:32:33.070Z,2.68
2023-01-13T18:35:06.629Z,2.84
2023-01-13T18:37:42.113Z,2.73
2023-01-13T18:40:16.560Z,2.26
2023-01-13T18:42:54.065Z,2.06
2023-01-13T18:45:28.646Z,2.42
2023-01-13T18:48:00.398Z,2.10
2023-01-13T18:50:30.936Z,2.30
2023-01-13T18:53:01.453Z,2.49
2023-01-13T18:55:33.933Z,2.44
2023-01-13T18:58:04.466Z,2.54
2023-01-13T19:00:37.422Z,2.48
2023-01-13T19:05:38.723Z,3.18
2023-01-13T19:08:08.873Z,4.25
2023-01-13T19:10:42.166Z,4.17
2023-01-13T19:13:12.134Z,3.24
2023-01-13T19:15:42.101Z,3.84
2023-01-13T19:18:13.454Z,3.06
2023-01-13T19:20:43.287Z,3.37
2023-01-13T19:23:13.172Z,3.27
2023-01-13T19:25:45.638Z,3.50
2023-01-13T19:28:15.505Z,3.25
2023-01-13T19:30:45.442Z,2.73
2023-01-13T19:33:15.316Z,2.92
2023-01-13T19:35:45.150Z,2.97
2023-01-13T19:38:15.005Z,3.11
2023-01-13T19:40:54.948Z,2.87
2023-01-13T19:43:38.161Z,2.71
2023-01-13T19:46:08.438Z,2.89
2023-01-13T19:48:38.347Z,3.30
2023-01-13T19:51:09.169Z,3.43
2023-01-13T19:53:39.055Z,3.13
2023-01-13T19:56:16.702Z,3.29
2023-01-13T19:58:50.751Z,2.83
2023-01-13T20:01:21.124Z,2.86
2023-01-13T20:03:51.149Z,3.33
2023-01-13T20:06:21.082Z,6.26
2023-01-13T20:08:51.090Z,4.57
2023-01-13T20:11:31.435Z,4.57
2023-01-13T20:14:03.198Z,3.88
2023-01-13T20:16:33.839Z,3.40
2023-01-13T20:19:03.743Z,4.66
2023-01-13T20:21:33.660Z,3.94
2023-01-13T20:24:03.532Z,4.22
2023-01-13T20:26:37.619Z,3.68
2023-01-13T20:29:07.550Z,3.36
2023-01-13T20:31:37.573Z,3.27
2023-01-13T20:34:08.629Z,2.82
2023-01-13T20:36:41.406Z,2.75
2023-01-13T20:39:13.217Z,3.48
2023-01-13T20:42:10.045Z,3.71
2023-01-13T20:44:40.055Z,3.16
2023-01-13T20:47:10.276Z,3.15
2023-01-13T20:49:40.278Z,3.20
2023-01-13T20:52:11.947Z,2.96
2023-01-13T20:54:43.501Z,3.00
2023-01-13T20:57:16.392Z,3.29
2023-01-13T20:59:46.331Z,4.07
2023-01-13T21:02:18.255Z,3.88
2023-01-13T21:04:48.151Z,4.78
2023-01-13T21:07:18.078Z,4.38
2023-01-13T21:09:48.068Z,3.11
2023-01-13T21:12:33.135Z,2.82
2023-01-13T21:15:15.657Z,2.83
2023-01-13T21:17:58.732Z,2.84
2023-01-13T21:20:30.647Z,3.09
2023-01-13T21:23:00.566Z,3.30
2023-01-13T21:25:30.712Z,3.32
2023-01-13T21:28:08.206Z,3.73
2023-01-13T21:30:39.175Z,3.10
2023-01-13T21:33:09.404Z,3.64
2023-01-13T21:35:42.399Z,3.78
2023-01-13T21:38:13.803Z,4.24
2023-01-13T21:40:43.702Z,3.20
2023-01-13T21:43:29.716Z,4.17
2023-01-13T21:46:12.376Z,3.84
2023-01-13T21:48:42.355Z,4.20
2023-01-13T21:51:12.238Z,3.74
2023-01-13T21:53:42.098Z,3.74
2023-01-13T21:56:12.015Z,4.29
2023-01-13T21:58:44.546Z,4.23
2023-01-13T22:01:14.637Z,4.17
2023-01-13T22:03:57.102Z,3.87
2023-01-13T22:06:27.938Z,4.28
2023-01-13T22:09:01.015Z,4.29
2023-01-13T22:11:31.923Z,3.98
2023-01-13T22:14:14.058Z,4.33
2023-01-13T22:16:49.747Z,4.28
2023-01-13T22:19:19.890Z,3.72
2023-01-13T22:21:49.766Z,4.61
2023-01-13T22:24:19.882Z,4.05
2023-01-13T22:26:49.862Z,4.05
2023-01-13T22:29:22.385Z,4.32
2023-01-13T22:31:52.483Z,4.30
2023-01-13T22:34:23.180Z,5.40
2023-01-13T22:36:53.154Z,3.90
2023-01-13T22:39:23.375Z,4.00
2023-01-13T22:41:53.588Z,4.09
2023-01-13T22:44:26.524Z,4.55
2023-01-13T22:46:56.523Z,4.49
2023-01-13T22:49:26.749Z,4.75
2023-01-13T22:51:56.730Z,4.30
2023-01-13T22:54:26.647Z,4.43
2023-01-13T22:56:56.600Z,4.64
2023-01-13T22:59:29.358Z,4.60
2023-01-13T23:01:59.329Z,4.65
2023-01-13T23:04:29.351Z,4.56
2023-01-13T23:07:00.048Z,3.76
2023-01-13T23:09:31.545Z,4.34
2023-01-13T23:12:01.542Z,4.16
2023-01-13T23:14:34.210Z,4.27
2023-01-13T23:17:04.751Z,4.69
2023-01-13T23:19:35.093Z,4.48
2023-01-13T23:22:05.022Z,4.81
2023-01-13T23:24:35.043Z,6.39
2023-01-13T23:27:04.866Z,4.24
2023-01-13T23:29:37.373Z,4.08
2023-01-13T23:32:08.158Z,4.73
2023-01-13T23:34:38.025Z,4.05
2023-01-13T23:37:07.991Z,3.85
2023-01-13T23:39:37.927Z,4.16
2023-01-13T23:42:07.958Z,4.52
2023-01-13T23:44:40.518Z,4.19
2023-01-13T23:47:11.759Z,4.04
2023-01-13T23:49:41.899Z,4.38
2023-01-13T23:52:12.007Z,4.60
2023-01-13T23:54:41.888Z,4.46
2023-01-13T23:57:11.752Z,4.34
2023-01-13T23:59:44.231Z,4.20
